sensor_id;sensor_type;location;lat;lon;timestamp;pressure;altitude;pressure_sealevel;temperature;humidity
75933;BME280;64803;52.356;5.310;2023-02-28T00:01:12;103581.47;;;2.26;100.00
75933;BME280;64803;52.356;5.310;2023-02-28T00:03:38;103585.44;;;2.38;100.00
75933;BME280;64803;52.356;5.310;2023-02-28T00:06:06;103588.00;;;2.41;100.00
75933;BME280;64803;52.356;5.310;2023-02-28T00:08:32;103593.22;;;2.42;100.00
75933;BME280;64803;52.356;5.310;2023-02-28T00:11:07;103586.19;;;2.41;100.00
75933;BME280;64803;52.356;5.310;2023-02-28T00:13:35;103593.31;;;2.39;100.00
75933;BME280;64803;52.356;5.310;2023-02-28T00:16:08;103583.53;;;2.41;100.00
75933;BME280;64803;52.356;5.310;2023-02-28T00:18:35;103581.56;;;2.46;100.00
75933;BME280;64803;52.356;5.310;2023-02-28T00:21:05;103563.38;;;2.37;100.00
75933;BME280;64803;52.356;5.310;2023-02-28T00:23:31;103584.22;;;2.46;100.00
75933;BME280;64803;52.356;5.310;2023-02-28T00:25:58;103579.78;;;2.47;100.00
75933;BME280;64803;52.356;5.310;2023-02-28T00:28:24;103586.78;;;2.48;100.00
75933;BME280;64803;52.356;5.310;2023-02-28T00:30:50;103582.38;;;2.48;100.00
75933;BME280;64803;52.356;5.310;2023-02-28T00:33:16;103575.22;;;2.50;100.00
75933;BME280;64803;52.356;5.310;2023-02-28T00:35:43;103573.50;;;2.49;100.00
75933;BME280;64803;52.356;5.310;2023-02-28T00:38:13;103577.88;;;2.50;100.00
75933;BME280;64803;52.356;5.310;2023-02-28T00:40:39;103567.13;;;2.53;100.00
75933;BME280;64803;52.356;5.310;2023-02-28T00:43:05;103575.22;;;2.50;100.00
75933;BME280;64803;52.356;5.310;2023-02-28T00:45:31;103577.06;;;2.48;100.00
75933;BME280;64803;52.356;5.310;2023-02-28T00:47:57;103568.31;;;2.46;100.00
75933;BME280;64803;52.356;5.310;2023-02-28T00:50:23;103569.56;;;2.59;100.00
75933;BME280;64803;52.356;5.310;2023-02-28T00:52:49;103565.00;;;2.63;100.00
75933;BME280;64803;52.356;5.310;2023-02-28T00:55:15;103565.38;;;2.75;100.00
75933;BME280;64803;52.356;5.310;2023-02-28T00:57:41;103577.59;;;2.79;100.00
75933;BME280;64803;52.356;5.310;2023-02-28T01:00:08;103562.41;;;2.83;100.00
75933;BME280;64803;52.356;5.310;2023-02-28T01:02:34;103564.22;;;2.82;100.00
75933;BME280;64803;52.356;5.310;2023-02-28T01:05:00;103570.19;;;2.87;99.97
75933;BME280;64803;52.356;5.310;2023-02-28T01:07:29;103566.47;;;2.91;99.53
75933;BME280;64803;52.356;5.310;2023-02-28T01:09:55;103562.91;;;2.92;99.56
75933;BME280;64803;52.356;5.310;2023-02-28T01:12:21;103571.97;;;2.87;100.00
75933;BME280;64803;52.356;5.310;2023-02-28T01:14:47;103580.81;;;2.87;100.00
75933;BME280;64803;52.356;5.310;2023-02-28T01:17:13;103572.09;;;2.84;99.93
75933;BME280;64803;52.356;5.310;2023-02-28T01:19:39;103567.91;;;2.78;100.00
75933;BME280;64803;52.356;5.310;2023-02-28T01:22:05;103571.53;;;2.76;100.00
75933;BME280;64803;52.356;5.310;2023-02-28T01:24:32;103439.31;;;2.02;100.00
75933;BME280;64803;52.356;5.310;2023-02-28T01:26:58;103557.59;;;2.71;100.00
75933;BME280;64803;52.356;5.310;2023-02-28T01:29:24;103555.56;;;2.77;100.00
75933;BME280;64803;52.356;5.310;2023-02-28T01:31:52;103491.59;;;2.42;100.00
75933;BME280;64803;52.356;5.310;2023-02-28T01:34:18;103555.25;;;2.85;100.00
75933;BME280;64803;52.356;5.310;2023-02-28T01:36:45;103549.94;;;2.85;100.00
75933;BME280;64803;52.356;5.310;2023-02-28T01:39:11;103553.53;;;2.84;100.00
75933;BME280;64803;52.356;5.310;2023-02-28T01:41:38;103552.13;;;2.75;100.00
75933;BME280;64803;52.356;5.310;2023-02-28T01:47:11;103558.69;;;2.65;100.00
75933;BME280;64803;52.356;5.310;2023-02-28T01:49:37;103525.72;;;2.51;100.00
75933;BME280;64803;52.356;5.310;2023-02-28T01:52:04;103531.69;;;2.56;100.00
75933;BME280;64803;52.356;5.310;2023-02-28T01:54:31;103546.59;;;2.58;100.00
75933;BME280;64803;52.356;5.310;2023-02-28T01:57:05;103551.69;;;2.64;100.00
75933;BME280;64803;52.356;5.310;2023-02-28T01:59:37;103549.91;;;2.65;100.00
75933;BME280;64803;52.356;5.310;2023-02-28T02:02:06;103545.25;;;2.70;100.00
75933;BME280;64803;52.356;5.310;2023-02-28T02:04:37;103533.03;;;2.66;100.00
75933;BME280;64803;52.356;5.310;2023-02-28T02:07:06;103536.22;;;2.74;100.00
75933;BME280;64803;52.356;5.310;2023-02-28T02:09:32;103516.25;;;2.65;100.00
75933;BME280;64803;52.356;5.310;2023-02-28T02:12:01;103523.97;;;2.71;100.00
75933;BME280;64803;52.356;5.310;2023-02-28T02:14:43;103529.34;;;2.70;100.00
75933;BME280;64803;52.356;5.310;2023-02-28T02:17:38;103528.25;;;2.75;100.00
75933;BME280;64803;52.356;5.310;2023-02-28T02:20:27;103521.88;;;2.79;100.00
75933;BME280;64803;52.356;5.310;2023-02-28T02:29:00;103531.31;;;2.86;100.00
75933;BME280;64803;52.356;5.310;2023-02-28T02:38:13;103526.72;;;2.90;100.00
75933;BME280;64803;52.356;5.310;2023-02-28T02:40:54;103486.91;;;2.70;100.00
75933;BME280;64803;52.356;5.310;2023-02-28T02:43:48;103513.22;;;2.96;100.00
75933;BME280;64803;52.356;5.310;2023-02-28T02:46:19;103515.13;;;2.92;100.00
75933;BME280;64803;52.356;5.310;2023-02-28T02:48:46;103536.75;;;3.03;100.00
75933;BME280;64803;52.356;5.310;2023-02-28T02:51:16;103408.16;;;2.28;100.00
75933;BME280;64803;52.356;5.310;2023-02-28T02:53:55;103530.78;;;2.98;100.00
75933;BME280;64803;52.356;5.310;2023-02-28T02:56:26;103526.34;;;2.99;100.00
75933;BME280;64803;52.356;5.310;2023-02-28T02:58:55;103530.78;;;2.98;100.00
75933;BME280;64803;52.356;5.310;2023-02-28T03:01:24;103529.06;;;2.97;100.00
75933;BME280;64803;52.356;5.310;2023-02-28T03:04:01;103533.44;;;2.98;100.00
75933;BME280;64803;52.356;5.310;2023-02-28T03:06:28;103521.41;;;2.90;100.00
75933;BME280;64803;52.356;5.310;2023-02-28T03:08:54;103536.31;;;2.94;100.00
75933;BME280;64803;52.356;5.310;2023-02-28T03:11:22;103534.44;;;2.96;100.00
75933;BME280;64803;52.356;5.310;2023-02-28T03:13:55;103534.59;;;2.93;100.00
75933;BME280;64803;52.356;5.310;2023-02-28T03:16:40;103531.81;;;2.96;100.00
75933;BME280;64803;52.356;5.310;2023-02-28T03:22:47;103527.28;;;2.98;100.00
75933;BME280;64803;52.356;5.310;2023-02-28T03:28:00;103521.19;;;2.96;100.00
75933;BME280;64803;52.356;5.310;2023-02-28T03:35:31;103519.56;;;2.92;100.00
75933;BME280;64803;52.356;5.310;2023-02-28T03:38:05;103524.66;;;2.98;100.00
75933;BME280;64803;52.356;5.310;2023-02-28T03:40:32;103529.06;;;2.97;100.00
75933;BME280;64803;52.356;5.310;2023-02-28T03:43:03;103424.03;;;2.30;100.00
75933;BME280;64803;52.356;5.310;2023-02-28T03:45:33;103533.72;;;2.92;100.00
75933;BME280;64803;52.356;5.310;2023-02-28T03:48:31;103537.25;;;2.93;100.00
75933;BME280;64803;52.356;5.310;2023-02-28T03:51:00;103537.34;;;2.90;100.00
75933;BME280;64803;52.356;5.310;2023-02-28T03:53:32;103537.34;;;2.90;100.00
75933;BME280;64803;52.356;5.310;2023-02-28T03:56:09;103541.81;;;2.89;100.00
75933;BME280;64803;52.356;5.310;2023-02-28T04:01:43;103544.50;;;2.88;100.00
75933;BME280;64803;52.356;5.310;2023-02-28T04:04:11;103534.91;;;2.85;100.00
75933;BME280;64803;52.356;5.310;2023-02-28T04:06:38;103522.66;;;2.81;100.00
75933;BME280;64803;52.356;5.310;2023-02-28T04:09:06;103537.56;;;2.85;100.00
75933;BME280;64803;52.356;5.310;2023-02-28T04:11:35;103540.19;;;2.85;100.00
75933;BME280;64803;52.356;5.310;2023-02-28T04:14:03;103537.84;;;2.78;100.00
75933;BME280;64803;52.356;5.310;2023-02-28T04:16:31;103547.34;;;2.83;100.00
75933;BME280;64803;52.356;5.310;2023-02-28T04:18:57;103543.03;;;2.81;100.00
75933;BME280;64803;52.356;5.310;2023-02-28T04:21:32;103543.91;;;2.81;100.00
75933;BME280;64803;52.356;5.310;2023-02-28T04:23:58;103545.66;;;2.82;100.00
75933;BME280;64803;52.356;5.310;2023-02-28T04:26:33;103560.56;;;2.85;100.00
75933;BME280;64803;52.356;5.310;2023-02-28T04:29:00;103493.06;;;2.49;100.00
75933;BME280;64803;52.356;5.310;2023-02-28T04:31:26;103541.31;;;2.80;100.00
75933;BME280;64803;52.356;5.310;2023-02-28T04:33:52;103401.41;;;2.00;100.00
75933;BME280;64803;52.356;5.310;2023-02-28T04:36:18;103542.41;;;2.74;100.00
75933;BME280;64803;52.356;5.310;2023-02-28T04:38:45;103425.31;;;1.98;100.00
75933;BME280;64803;52.356;5.310;2023-02-28T04:41:12;103540.09;;;2.67;100.00
75933;BME280;64803;52.356;5.310;2023-02-28T04:43:38;103529.47;;;2.67;100.00
75933;BME280;64803;52.356;5.310;2023-02-28T04:46:05;103530.22;;;2.70;100.00
75933;BME280;64803;52.356;5.310;2023-02-28T04:48:33;103540.84;;;2.70;100.00
75933;BME280;64803;52.356;5.310;2023-02-28T04:51:05;103534.72;;;2.68;100.00
75933;BME280;64803;52.356;5.310;2023-02-28T04:53:32;103521.47;;;2.68;100.00
75933;BME280;64803;52.356;5.310;2023-02-28T04:55:58;103510.41;;;2.57;100.00
75933;BME280;64803;52.356;5.310;2023-02-28T04:58:25;103524.13;;;2.68;100.00
75933;BME280;64803;52.356;5.310;2023-02-28T05:00:52;103527.66;;;2.67;100.00
75933;BME280;64803;52.356;5.310;2023-02-28T05:03:19;103533.91;;;2.66;100.00
75933;BME280;64803;52.356;5.310;2023-02-28T05:05:46;103376.69;;;1.78;100.00
75933;BME280;64803;52.356;5.310;2023-02-28T05:08:12;103527.88;;;2.63;100.00
75933;BME280;64803;52.356;5.310;2023-02-28T05:10:39;103513.06;;;2.57;100.00
75933;BME280;64803;52.356;5.310;2023-02-28T05:13:05;103536.69;;;2.63;100.00
75933;BME280;64803;52.356;5.310;2023-02-28T05:15:31;103524.63;;;2.55;100.00
75933;BME280;64803;52.356;5.310;2023-02-28T05:17:57;103480.75;;;2.26;100.00
75933;BME280;64803;52.356;5.310;2023-02-28T05:20:23;103529.09;;;2.54;100.00
75933;BME280;64803;52.356;5.310;2023-02-28T05:22:49;103534.41;;;2.54;100.00
75933;BME280;64803;52.356;5.310;2023-02-28T05:25:18;103532.66;;;2.53;100.00
75933;BME280;64803;52.356;5.310;2023-02-28T05:27:44;103524.03;;;2.48;100.00
75933;BME280;64803;52.356;5.310;2023-02-28T05:30:10;103535.31;;;2.53;100.00
75933;BME280;64803;52.356;5.310;2023-02-28T05:32:37;103540.69;;;2.52;100.00
75933;BME280;64803;52.356;5.310;2023-02-28T05:35:04;103537.16;;;2.51;100.00
75933;BME280;64803;52.356;5.310;2023-02-28T05:37:30;103508.66;;;2.35;100.00
75933;BME280;64803;52.356;5.310;2023-02-28T05:39:56;103535.56;;;2.47;100.00
75933;BME280;64803;52.356;5.310;2023-02-28T05:42:22;103533.03;;;2.44;100.00
75933;BME280;64803;52.356;5.310;2023-02-28T05:44:48;103536.22;;;2.30;100.00
75933;BME280;64803;52.356;5.310;2023-02-28T05:47:14;103550.47;;;2.28;100.00
75933;BME280;64803;52.356;5.310;2023-02-28T05:49:41;103365.50;;;1.00;100.00
75933;BME280;64803;52.356;5.310;2023-02-28T05:52:07;103558.63;;;1.99;100.00
75933;BME280;64803;52.356;5.310;2023-02-28T05:54:33;103533.84;;;1.77;100.00
75933;BME280;64803;52.356;5.310;2023-02-28T05:56:59;103559.25;;;1.82;100.00
75933;BME280;64803;52.356;5.310;2023-02-28T05:59:25;103551.69;;;1.72;100.00
75933;BME280;64803;52.356;5.310;2023-02-28T06:01:51;103562.19;;;1.75;100.00
75933;BME280;64803;52.356;5.310;2023-02-28T06:04:20;103563.22;;;1.71;100.00
75933;BME280;64803;52.356;5.310;2023-02-28T06:06:48;103565.97;;;1.68;100.00
75933;BME280;64803;52.356;5.310;2023-02-28T06:09:14;103440.00;;;0.88;100.00
75933;BME280;64803;52.356;5.310;2023-02-28T06:11:41;103550.94;;;1.44;100.00
75933;BME280;64803;52.356;5.310;2023-02-28T06:14:14;103571.16;;;1.46;100.00
75933;BME280;64803;52.356;5.310;2023-02-28T06:16:40;103569.72;;;1.36;100.00
75933;BME280;64803;52.356;5.310;2023-02-28T06:19:06;103576.22;;;1.28;100.00
75933;BME280;64803;52.356;5.310;2023-02-28T06:21:32;103552.09;;;1.10;100.00
75933;BME280;64803;52.356;5.310;2023-02-28T06:23:59;103575.72;;;1.17;100.00
75933;BME280;64803;52.356;5.310;2023-02-28T06:26:25;103580.25;;;1.13;100.00
75933;BME280;64803;52.356;5.310;2023-02-28T06:28:51;103577.78;;;1.07;100.00
75933;BME280;64803;52.356;5.310;2023-02-28T06:31:18;103578.84;;;1.01;100.00
75933;BME280;64803;52.356;5.310;2023-02-28T06:33:45;103569.44;;;0.93;100.00
75933;BME280;64803;52.356;5.310;2023-02-28T06:36:13;103397.56;;;-0.13;100.00
75933;BME280;64803;52.356;5.310;2023-02-28T06:38:40;103587.28;;;0.86;100.00
75933;BME280;64803;52.356;5.310;2023-02-28T06:41:07;103583.78;;;0.86;100.00
75933;BME280;64803;52.356;5.310;2023-02-28T06:43:36;103587.47;;;0.82;100.00
75933;BME280;64803;52.356;5.310;2023-02-28T06:46:05;103594.56;;;0.80;100.00
75933;BME280;64803;52.356;5.310;2023-02-28T06:48:32;103588.28;;;0.82;100.00
75933;BME280;64803;52.356;5.310;2023-02-28T06:51:10;103590.13;;;0.80;100.00
75933;BME280;64803;52.356;5.310;2023-02-28T06:53:37;103583.41;;;0.70;100.00
75933;BME280;64803;52.356;5.310;2023-02-28T06:56:07;103588.28;;;0.82;100.00
75933;BME280;64803;52.356;5.310;2023-02-28T06:58:34;103593.59;;;0.82;100.00
75933;BME280;64803;52.356;5.310;2023-02-28T07:01:00;103590.34;;;0.74;100.00
75933;BME280;64803;52.356;5.310;2023-02-28T07:03:27;103606.00;;;0.80;100.00
75933;BME280;64803;52.356;5.310;2023-02-28T07:05:53;103601.53;;;0.82;100.00
75933;BME280;64803;52.356;5.310;2023-02-28T07:08:25;103608.56;;;0.83;100.00
75933;BME280;64803;52.356;5.310;2023-02-28T07:10:54;103606.00;;;0.80;100.00
75933;BME280;64803;52.356;5.310;2023-02-28T07:13:20;103599.13;;;0.75;100.00
75933;BME280;64803;52.356;5.310;2023-02-28T07:15:54;103608.84;;;0.74;100.00
75933;BME280;64803;52.356;5.310;2023-02-28T07:18:20;103613.19;;;0.75;100.00
75933;BME280;64803;52.356;5.310;2023-02-28T07:20:46;103608.91;;;0.73;100.00
75933;BME280;64803;52.356;5.310;2023-02-28T07:23:12;103612.31;;;0.76;100.00
75933;BME280;64803;52.356;5.310;2023-02-28T07:25:38;103612.94;;;0.84;100.00
75933;BME280;64803;52.356;5.310;2023-02-28T07:28:05;103611.63;;;0.97;100.00
75933;BME280;64803;52.356;5.310;2023-02-28T07:30:31;103613.88;;;1.09;100.00
75933;BME280;64803;52.356;5.310;2023-02-28T07:32:57;103603.19;;;1.12;100.00
75933;BME280;64803;52.356;5.310;2023-02-28T07:35:23;103603.97;;;1.16;100.00
75933;BME280;64803;52.356;5.310;2023-02-28T07:37:49;103595.84;;;1.21;100.00
75933;BME280;64803;52.356;5.310;2023-02-28T07:40:15;103604.41;;;1.29;100.00
75933;BME280;64803;52.356;5.310;2023-02-28T07:42:43;103600.09;;;1.26;100.00
75933;BME280;64803;52.356;5.310;2023-02-28T07:45:10;103612.56;;;1.23;100.00
75933;BME280;64803;52.356;5.310;2023-02-28T07:47:42;103607.47;;;1.17;100.00
75933;BME280;64803;52.356;5.310;2023-02-28T07:50:10;103603.31;;;1.09;100.00
75933;BME280;64803;52.356;5.310;2023-02-28T07:52:37;103606.84;;;1.08;100.00
75933;BME280;64803;52.356;5.310;2023-02-28T07:55:05;103614.59;;;1.14;100.00
75933;BME280;64803;52.356;5.310;2023-02-28T07:57:32;103599.59;;;1.15;100.00
75933;BME280;64803;52.356;5.310;2023-02-28T07:59:58;103602.25;;;1.15;100.00
75933;BME280;64803;52.356;5.310;2023-02-28T08:02:24;103603.75;;;1.22;100.00
75933;BME280;64803;52.356;5.310;2023-02-28T08:04:50;103596.53;;;1.27;100.00
75933;BME280;64803;52.356;5.310;2023-02-28T08:07:17;103596.25;;;1.35;100.00
75933;BME280;64803;52.356;5.310;2023-02-28T08:09:43;103601.41;;;1.39;100.00
75933;BME280;64803;52.356;5.310;2023-02-28T08:12:10;103526.16;;;0.95;100.00
75933;BME280;64803;52.356;5.310;2023-02-28T08:14:37;103447.31;;;0.56;100.00
75933;BME280;64803;52.356;5.310;2023-02-28T08:17:04;103596.66;;;1.49;100.00
75933;BME280;64803;52.356;5.310;2023-02-28T08:19:30;103599.56;;;1.66;100.00
75933;BME280;64803;52.356;5.310;2023-02-28T08:21:56;103606.38;;;1.74;100.00
75933;BME280;64803;52.356;5.310;2023-02-28T08:24:23;103606.88;;;1.84;100.00
75933;BME280;64803;52.356;5.310;2023-02-28T08:26:49;103607.53;;;1.90;100.00
75933;BME280;64803;52.356;5.310;2023-02-28T08:29:15;103605.69;;;1.92;100.00
75933;BME280;64803;52.356;5.310;2023-02-28T08:31:42;103612.75;;;1.92;100.00
75933;BME280;64803;52.356;5.310;2023-02-28T08:34:10;103617.44;;;1.85;100.00
75933;BME280;64803;52.356;5.310;2023-02-28T08:36:37;103614.91;;;1.82;100.00
75933;BME280;64803;52.356;5.310;2023-02-28T08:39:03;103617.59;;;1.81;100.00
75933;BME280;64803;52.356;5.310;2023-02-28T08:41:30;103611.16;;;1.88;100.00
75933;BME280;64803;52.356;5.310;2023-02-28T08:43:56;103458.22;;;0.97;100.00
75933;BME280;64803;52.356;5.310;2023-02-28T08:46:22;103614.28;;;1.99;100.00
75933;BME280;64803;52.356;5.310;2023-02-28T08:48:54;103601.63;;;2.07;100.00
75933;BME280;64803;52.356;5.310;2023-02-28T08:51:21;103610.91;;;2.18;100.00
75933;BME280;64803;52.356;5.310;2023-02-28T08:53:53;103604.31;;;2.30;100.00
75933;BME280;64803;52.356;5.310;2023-02-28T08:56:19;103612.53;;;2.46;100.00
75933;BME280;64803;52.356;5.310;2023-02-28T08:58:47;103624.38;;;2.59;100.00
75933;BME280;64803;52.356;5.310;2023-02-28T09:03:41;103602.53;;;2.75;100.00
75933;BME280;64803;52.356;5.310;2023-02-28T09:06:09;103624.00;;;2.91;100.00
75933;BME280;64803;52.356;5.310;2023-02-28T09:08:35;103617.69;;;2.93;100.00
75933;BME280;64803;52.356;5.310;2023-02-28T09:11:02;103637.22;;;2.92;100.00
75933;BME280;64803;52.356;5.310;2023-02-28T09:13:29;103624.34;;;3.03;100.00
75933;BME280;64803;52.356;5.310;2023-02-28T09:16:00;103633.63;;;3.15;100.00
75933;BME280;64803;52.356;5.310;2023-02-28T09:18:29;103638.44;;;3.27;100.00
75933;BME280;64803;52.356;5.310;2023-02-28T09:20:56;103532.38;;;2.82;100.00
75933;BME280;64803;52.356;5.310;2023-02-28T09:23:23;103576.84;;;3.19;100.00
75933;BME280;64803;52.356;5.310;2023-02-28T09:25:53;103629.13;;;3.59;100.00
75933;BME280;64803;52.356;5.310;2023-02-28T09:28:20;103620.50;;;3.54;100.00
75933;BME280;64803;52.356;5.310;2023-02-28T09:30:52;103627.16;;;3.64;100.00
75933;BME280;64803;52.356;5.310;2023-02-28T09:33:19;103628.53;;;3.72;100.00
75933;BME280;64803;52.356;5.310;2023-02-28T09:35:51;103626.28;;;3.63;100.00
75933;BME280;64803;52.356;5.310;2023-02-28T09:38:22;103624.63;;;3.61;100.00
75933;BME280;64803;52.356;5.310;2023-02-28T09:40:51;103624.56;;;3.62;100.00
75933;BME280;64803;52.356;5.310;2023-02-28T09:43:20;103630.75;;;3.63;100.00
75933;BME280;64803;52.356;5.310;2023-02-28T09:45:52;103537.19;;;3.14;100.00
75933;BME280;64803;52.356;5.310;2023-02-28T09:48:29;103630.31;;;3.72;100.00
75933;BME280;64803;52.356;5.310;2023-02-28T09:51:09;103633.94;;;3.71;100.00
75933;BME280;64803;52.356;5.310;2023-02-28T09:53:37;103560.13;;;3.37;100.00
75933;BME280;64803;52.356;5.310;2023-02-28T09:58:54;103635.72;;;3.90;100.00
75933;BME280;64803;52.356;5.310;2023-02-28T10:07:13;103626.72;;;4.51;95.57
75933;BME280;64803;52.356;5.310;2023-02-28T10:09:47;103630.75;;;4.60;91.36
75933;BME280;64803;52.356;5.310;2023-02-28T10:12:16;103625.19;;;4.65;88.58
75933;BME280;64803;52.356;5.310;2023-02-28T10:14:45;103626.50;;;4.56;89.97
75933;BME280;64803;52.356;5.310;2023-02-28T10:17:19;103631.31;;;4.67;90.41
75933;BME280;64803;52.356;5.310;2023-02-28T10:20:02;103629.84;;;4.78;86.17
75933;BME280;64803;52.356;5.310;2023-02-28T10:22:47;103522.06;;;4.32;83.84
75933;BME280;64803;52.356;5.310;2023-02-28T10:25:22;103626.63;;;4.90;82.17
75933;BME280;64803;52.356;5.310;2023-02-28T10:27:49;103624.75;;;4.92;81.74
75933;BME280;64803;52.356;5.310;2023-02-28T10:30:16;103622.44;;;5.03;79.61
75933;BME280;64803;52.356;5.310;2023-02-28T10:32:49;103622.28;;;5.06;81.73
75933;BME280;64803;52.356;5.310;2023-02-28T10:35:18;103626.84;;;5.21;79.62
75933;BME280;64803;52.356;5.310;2023-02-28T10:37:49;103572.72;;;5.04;78.41
75933;BME280;64803;52.356;5.310;2023-02-28T10:42:58;103608.38;;;5.35;77.79
75933;BME280;64803;52.356;5.310;2023-02-28T10:45:26;103620.00;;;5.51;78.15
75933;BME280;64803;52.356;5.310;2023-02-28T10:47:56;103612.00;;;5.51;79.36
75933;BME280;64803;52.356;5.310;2023-02-28T10:50:33;103608.63;;;5.48;77.84
75933;BME280;64803;52.356;5.310;2023-02-28T10:53:10;103593.34;;;5.51;78.89
75933;BME280;64803;52.356;5.310;2023-02-28T10:55:40;103604.16;;;5.65;76.19
75933;BME280;64803;52.356;5.310;2023-02-28T10:58:27;103583.91;;;5.61;74.09
75933;BME280;64803;52.356;5.310;2023-02-28T11:00:53;103610.09;;;5.70;75.76
75933;BME280;64803;52.356;5.310;2023-02-28T11:03:31;103603.06;;;5.69;76.52
75933;BME280;64803;52.356;5.310;2023-02-28T11:05:58;103481.63;;;5.14;70.38
75933;BME280;64803;52.356;5.310;2023-02-28T11:08:24;103601.91;;;5.75;73.11
75933;BME280;64803;52.356;5.310;2023-02-28T11:10:56;103593.19;;;5.89;76.85
75933;BME280;64803;52.356;5.310;2023-02-28T11:13:31;103602.59;;;5.96;70.77
75933;BME280;64803;52.356;5.310;2023-02-28T11:16:02;103480.97;;;5.43;71.39
75933;BME280;64803;52.356;5.310;2023-02-28T11:18:37;103587.00;;;6.21;69.56
75933;BME280;64803;52.356;5.310;2023-02-28T11:21:05;103585.41;;;6.34;69.82
75933;BME280;64803;52.356;5.310;2023-02-28T11:23:35;103591.97;;;6.11;64.82
75933;BME280;64803;52.356;5.310;2023-02-28T11:26:02;103563.59;;;5.93;65.61
75933;BME280;64803;52.356;5.310;2023-02-28T11:28:38;103579.16;;;5.68;63.30
75933;BME280;64803;52.356;5.310;2023-02-28T11:33:54;103567.78;;;5.30;67.17
75933;BME280;64803;52.356;5.310;2023-02-28T11:36:27;103553.66;;;5.28;70.66
75933;BME280;64803;52.356;5.310;2023-02-28T11:38:56;103501.66;;;5.04;68.31
75933;BME280;64803;52.356;5.310;2023-02-28T11:47:00;103564.31;;;5.28;58.03
75933;BME280;64803;52.356;5.310;2023-02-28T11:55:25;103564.91;;;5.35;58.99
75933;BME280;64803;52.356;5.310;2023-02-28T12:03:43;103559.94;;;5.44;63.70
75933;BME280;64803;52.356;5.310;2023-02-28T12:06:22;103552.56;;;5.49;58.09
75933;BME280;64803;52.356;5.310;2023-02-28T12:09:23;103549.53;;;5.57;57.33
75933;BME280;64803;52.356;5.310;2023-02-28T12:12:10;103549.13;;;5.47;54.79
75933;BME280;64803;52.356;5.310;2023-02-28T12:15:13;103550.63;;;5.53;55.47
75933;BME280;64803;52.356;5.310;2023-02-28T12:28:26;103537.66;;;5.80;59.07
75933;BME280;64803;52.356;5.310;2023-02-28T12:31:00;103542.19;;;5.78;56.07
75933;BME280;64803;52.356;5.310;2023-02-28T12:33:33;103534.34;;;5.92;61.17
75933;BME280;64803;52.356;5.310;2023-02-28T12:36:05;103448.63;;;5.66;59.36
75933;BME280;64803;52.356;5.310;2023-02-28T12:38:48;103530.47;;;6.30;57.12
75933;BME280;64803;52.356;5.310;2023-02-28T12:41:35;103535.94;;;5.96;54.82
75933;BME280;64803;52.356;5.310;2023-02-28T12:44:07;103524.97;;;5.85;54.83
75933;BME280;64803;52.356;5.310;2023-02-28T12:46:37;103531.25;;;5.84;56.79
75933;BME280;64803;52.356;5.310;2023-02-28T12:49:23;103523.53;;;5.95;54.76
75933;BME280;64803;52.356;5.310;2023-02-28T12:51:52;103512.09;;;5.75;54.16
75933;BME280;64803;52.356;5.310;2023-02-28T12:59:50;103525.78;;;6.02;54.51
75933;BME280;64803;52.356;5.310;2023-02-28T13:05:04;103525.09;;;5.99;51.30
75933;BME280;64803;52.356;5.310;2023-02-28T13:10:12;103521.06;;;6.07;54.68
75933;BME280;64803;52.356;5.310;2023-02-28T13:12:54;103514.25;;;6.17;54.01
75933;BME280;64803;52.356;5.310;2023-02-28T13:15:27;103525.38;;;6.10;51.65
75933;BME280;64803;52.356;5.310;2023-02-28T13:17:58;103512.72;;;6.13;53.62
75933;BME280;64803;52.356;5.310;2023-02-28T13:20:27;103511.78;;;6.14;51.90
75933;BME280;64803;52.356;5.310;2023-02-28T13:22:55;103507.81;;;6.21;53.12
75933;BME280;64803;52.356;5.310;2023-02-28T13:27:55;103495.16;;;6.25;54.78
75933;BME280;64803;52.356;5.310;2023-02-28T13:38:54;103493.00;;;6.47;54.85
75933;BME280;64803;52.356;5.310;2023-02-28T13:44:01;103486.19;;;6.72;56.10
75933;BME280;64803;52.356;5.310;2023-02-28T13:46:28;103474.69;;;6.56;50.94
75933;BME280;64803;52.356;5.310;2023-02-28T13:48:54;103308.88;;;5.39;51.72
75933;BME280;64803;52.356;5.310;2023-02-28T13:51:38;103480.91;;;6.26;50.03
75933;BME280;64803;52.356;5.310;2023-02-28T13:54:19;103479.66;;;6.31;52.76
75933;BME280;64803;52.356;5.310;2023-02-28T13:57:13;103352.47;;;5.54;50.21
75933;BME280;64803;52.356;5.310;2023-02-28T14:05:29;103476.25;;;6.29;50.91
75933;BME280;64803;52.356;5.310;2023-02-28T14:07:59;103476.06;;;6.17;50.24
75933;BME280;64803;52.356;5.310;2023-02-28T14:10:36;103389.75;;;5.87;52.40
75933;BME280;64803;52.356;5.310;2023-02-28T14:16:23;103473.13;;;6.37;51.89
75933;BME280;64803;52.356;5.310;2023-02-28T14:18:59;103466.06;;;6.51;50.89
75933;BME280;64803;52.356;5.310;2023-02-28T14:21:32;103465.28;;;6.65;54.05
75933;BME280;64803;52.356;5.310;2023-02-28T14:31:48;103460.22;;;6.90;54.53
75933;BME280;64803;52.356;5.310;2023-02-28T14:34:43;103458.91;;;6.97;51.47
75933;BME280;64803;52.356;5.310;2023-02-28T14:37:18;103456.72;;;6.74;52.30
75933;BME280;64803;52.356;5.310;2023-02-28T14:39:46;103452.09;;;6.62;50.02
75933;BME280;64803;52.356;5.310;2023-02-28T14:42:28;103457.66;;;6.73;50.98
75933;BME280;64803;52.356;5.310;2023-02-28T14:44:55;103450.81;;;6.69;48.22
75933;BME280;64803;52.356;5.310;2023-02-28T14:47:29;103453.81;;;6.63;50.47
75933;BME280;64803;52.356;5.310;2023-02-28T14:49:57;103458.31;;;6.47;48.57
75933;BME280;64803;52.356;5.310;2023-02-28T14:52:26;103421.31;;;6.41;50.84
75933;BME280;64803;52.356;5.310;2023-02-28T14:54:57;103436.97;;;6.47;52.24
75933;BME280;64803;52.356;5.310;2023-02-28T14:57:27;103450.94;;;6.52;49.74
75933;BME280;64803;52.356;5.310;2023-02-28T15:00:21;103448.94;;;6.40;51.37
75933;BME280;64803;52.356;5.310;2023-02-28T15:02:48;103454.03;;;6.44;51.71